メインページ
METAR-TAF:

METAR-TAF

空港 :

イースター島, チリ

マタベリ国際空港

緯度: 27-09S, 経度: 109-25W, 海抜: 51m

現時点の気象観測

当レポートは33分前の15:00(UTC)に作成
東/北東の風 5kt
気温 18°C
湿度 68%
気圧 1026 hPa
視程10km以上
高度2000ftの雲はほとんどない
高度4000ftの千切れ雲あり

METAR: SCIP 251500Z 06005KT 9999 FEW020 BKN040 18/12 Q1026 NOSIG

時間: 09:33 (15:33 UTC)

予報

当レポートは5時間14分前の10:19(UTC)に作成
予報は25日の 12時(UTC)から 26日の 12時(UTC)まで有効
東/北東の風 7kt
視程10km以上
高度2000ftの雲はほとんどない
高度4000ftの雲は散在している
25日の 12時(UTC)から 25日の 14時(UTC)まで一時的に
の風 5kt
視程: 7000m
高度2000ftの千切れ雲あり
弱いにわか雨
25日の 15時(UTC)から 25日の 17時(UTC)まで徐々に
北東の風 12kt
高度2000ftの雲は散在している
高度4000ftの千切れ雲あり
25日の 18時(UTC)から 26日の 21時(UTC)まで一時的に
の風 7kt
高度2000ftの雲はほとんどない
高度4000ftの雲は散在している
高度25000ftの千切れ雲あり
26日の 02時(UTC)から 26日の 04時(UTC)まで徐々に
東/北東の風 7kt
高度2000ftの雲はほとんどない
高度4000ftの雲は散在している
26日の 06時(UTC)から 26日の 09時(UTC)まで一時的に
の風 12kt
高度2000ftの雲は散在している
高度4000ftの千切れ雲あり

TAF: SCIP 251019Z 2512/2612 07007KT 9999 FEW020 SCT040 TN18/2512Z TX23 /2520Z TEMPO 2512/2514 10005KT 7000 -SHRA BKN020 BECMG 2515/2517 05012KT SCT020 BKN040 TEMPO 2518/2621 36007KT FEW020 SCT040 BKN250 BECMG 2602/2604 06007KT FEW020 SCT040 TEMPO 2606/2609 36012KT SCT020 BKN040

4,000以上の空港の気象観測と天気予報(METAR報とTAF報)

利用可能な観測所は地図上に黄色い丸と赤い丸で示す。

丸の上にカーソルを重ねると観測所名を参照できる。

次にクリックすると気象観測と天気予報を参照できる。

マップの切り替え:黒色「×」印の緑ボタンをクリックして拡大、「-」印の緑ボタンをクリックして縮小、緑色の三角印をクリックして隣りの地図に切り替え


METAR-TAF: